sensor_id;sensor_type;location;lat;lon;timestamp;P1;durP1;ratioP1;P2;durP2;ratioP2
60867;SDS011;46702;48.370;10.794;2022-10-16T00:00:35;5.95;;;1.60;;
60867;SDS011;46702;48.370;10.794;2022-10-16T00:03:04;2.63;;;1.75;;
60867;SDS011;46702;48.370;10.794;2022-10-16T00:05:31;3.63;;;1.50;;
60867;SDS011;46702;48.370;10.794;2022-10-16T00:07:57;3.65;;;1.50;;
60867;SDS011;46702;48.370;10.794;2022-10-16T00:10:22;5.10;;;1.42;;
60867;SDS011;46702;48.370;10.794;2022-10-16T00:12:48;4.13;;;1.60;;
60867;SDS011;46702;48.370;10.794;2022-10-16T00:15:14;2.90;;;2.00;;
60867;SDS011;46702;48.370;10.794;2022-10-16T00:17:41;1.90;;;1.27;;
60867;SDS011;46702;48.370;10.794;2022-10-16T00:20:07;4.57;;;1.45;;
60867;SDS011;46702;48.370;10.794;2022-10-16T00:22:33;2.35;;;1.45;;
60867;SDS011;46702;48.370;10.794;2022-10-16T00:24:59;4.00;;;1.58;;
60867;SDS011;46702;48.370;10.794;2022-10-16T00:27:24;2.95;;;1.65;;
60867;SDS011;46702;48.370;10.794;2022-10-16T00:29:51;2.58;;;1.70;;
60867;SDS011;46702;48.370;10.794;2022-10-16T00:32:18;3.70;;;1.95;;
60867;SDS011;46702;48.370;10.794;2022-10-16T00:34:44;3.38;;;1.60;;
60867;SDS011;46702;48.370;10.794;2022-10-16T00:37:10;1.67;;;1.40;;
60867;SDS011;46702;48.370;10.794;2022-10-16T00:39:37;1.70;;;1.60;;
60867;SDS011;46702;48.370;10.794;2022-10-16T00:42:03;5.70;;;1.65;;
60867;SDS011;46702;48.370;10.794;2022-10-16T00:44:44;3.28;;;1.50;;
60867;SDS011;46702;48.370;10.794;2022-10-16T00:50:18;2.67;;;1.80;;
60867;SDS011;46702;48.370;10.794;2022-10-16T00:52:53;2.10;;;1.55;;
60867;SDS011;46702;48.370;10.794;2022-10-16T00:55:20;2.47;;;1.70;;
60867;SDS011;46702;48.370;10.794;2022-10-16T00:57:46;4.25;;;1.63;;
60867;SDS011;46702;48.370;10.794;2022-10-16T01:00:15;4.15;;;1.25;;
60867;SDS011;46702;48.370;10.794;2022-10-16T01:02:59;3.03;;;1.08;;
60867;SDS011;46702;48.370;10.794;2022-10-16T01:05:30;2.90;;;1.40;;
60867;SDS011;46702;48.370;10.794;2022-10-16T01:13:27;1.38;;;1.30;;
60867;SDS011;46702;48.370;10.794;2022-10-16T01:16:07;2.50;;;1.15;;
60867;SDS011;46702;48.370;10.794;2022-10-16T01:18:45;4.03;;;1.53;;
60867;SDS011;46702;48.370;10.794;2022-10-16T01:21:20;2.70;;;1.20;;
60867;SDS011;46702;48.370;10.794;2022-10-16T01:29:52;1.50;;;1.40;;
60867;SDS011;46702;48.370;10.794;2022-10-16T01:35:25;1.70;;;1.40;;
60867;SDS011;46702;48.370;10.794;2022-10-16T01:37:59;2.60;;;1.77;;
60867;SDS011;46702;48.370;10.794;2022-10-16T01:40:54;1.92;;;1.60;;
60867;SDS011;46702;48.370;10.794;2022-10-16T01:43:34;1.77;;;1.38;;
60867;SDS011;46702;48.370;10.794;2022-10-16T01:46:03;2.17;;;1.40;;
60867;SDS011;46702;48.370;10.794;2022-10-16T01:48:30;7.72;;;1.40;;
60867;SDS011;46702;48.370;10.794;2022-10-16T01:51:05;3.97;;;1.35;;
60867;SDS011;46702;48.370;10.794;2022-10-16T01:53:33;2.85;;;1.55;;
60867;SDS011;46702;48.370;10.794;2022-10-16T01:56:07;1.45;;;1.35;;
60867;SDS011;46702;48.370;10.794;2022-10-16T01:58:35;2.53;;;1.67;;
60867;SDS011;46702;48.370;10.794;2022-10-16T02:01:04;3.03;;;1.63;;
60867;SDS011;46702;48.370;10.794;2022-10-16T02:03:34;2.85;;;1.50;;
60867;SDS011;46702;48.370;10.794;2022-10-16T02:06:02;1.50;;;1.40;;
60867;SDS011;46702;48.370;10.794;2022-10-16T02:08:29;5.40;;;1.92;;
60867;SDS011;46702;48.370;10.794;2022-10-16T02:10:59;6.85;;;1.40;;
60867;SDS011;46702;48.370;10.794;2022-10-16T02:13:45;2.80;;;1.20;;
60867;SDS011;46702;48.370;10.794;2022-10-16T02:16:16;3.95;;;1.42;;
60867;SDS011;46702;48.370;10.794;2022-10-16T02:18:42;4.55;;;1.30;;
60867;SDS011;46702;48.370;10.794;2022-10-16T02:26:34;2.90;;;1.30;;
60867;SDS011;46702;48.370;10.794;2022-10-16T02:29:07;2.15;;;1.30;;
60867;SDS011;46702;48.370;10.794;2022-10-16T02:31:38;1.88;;;1.10;;
60867;SDS011;46702;48.370;10.794;2022-10-16T02:34:10;4.60;;;1.50;;
60867;SDS011;46702;48.370;10.794;2022-10-16T02:36:39;5.78;;;1.52;;
60867;SDS011;46702;48.370;10.794;2022-10-16T02:39:06;1.33;;;1.25;;
60867;SDS011;46702;48.370;10.794;2022-10-16T02:41:33;1.25;;;1.20;;
60867;SDS011;46702;48.370;10.794;2022-10-16T02:44:00;1.50;;;1.38;;
60867;SDS011;46702;48.370;10.794;2022-10-16T02:46:26;3.45;;;2.83;;
60867;SDS011;46702;48.370;10.794;2022-10-16T02:48:52;7.07;;;5.00;;
60867;SDS011;46702;48.370;10.794;2022-10-16T02:51:17;7.97;;;7.00;;
60867;SDS011;46702;48.370;10.794;2022-10-16T02:53:43;10.50;;;6.43;;
60867;SDS011;46702;48.370;10.794;2022-10-16T02:56:09;8.55;;;7.18;;
60867;SDS011;46702;48.370;10.794;2022-10-16T02:58:35;6.25;;;5.18;;
60867;SDS011;46702;48.370;10.794;2022-10-16T03:01:01;8.00;;;4.57;;
60867;SDS011;46702;48.370;10.794;2022-10-16T03:03:27;4.65;;;3.65;;
60867;SDS011;46702;48.370;10.794;2022-10-16T03:05:53;3.45;;;2.67;;
60867;SDS011;46702;48.370;10.794;2022-10-16T03:08:22;3.10;;;2.50;;
60867;SDS011;46702;48.370;10.794;2022-10-16T03:10:50;6.88;;;3.63;;
60867;SDS011;46702;48.370;10.794;2022-10-16T03:13:16;5.65;;;3.83;;
60867;SDS011;46702;48.370;10.794;2022-10-16T03:15:45;5.30;;;4.80;;
60867;SDS011;46702;48.370;10.794;2022-10-16T03:18:11;6.93;;;5.38;;
60867;SDS011;46702;48.370;10.794;2022-10-16T03:20:38;4.78;;;4.28;;
60867;SDS011;46702;48.370;10.794;2022-10-16T03:23:04;4.28;;;3.88;;
60867;SDS011;46702;48.370;10.794;2022-10-16T03:25:31;9.17;;;5.30;;
60867;SDS011;46702;48.370;10.794;2022-10-16T03:27:57;24.33;;;13.20;;
60867;SDS011;46702;48.370;10.794;2022-10-16T03:30:24;8.85;;;5.63;;
60867;SDS011;46702;48.370;10.794;2022-10-16T03:32:50;5.85;;;3.78;;
60867;SDS011;46702;48.370;10.794;2022-10-16T03:35:19;4.13;;;3.00;;
60867;SDS011;46702;48.370;10.794;2022-10-16T03:37:49;2.80;;;2.35;;
60867;SDS011;46702;48.370;10.794;2022-10-16T03:40:15;7.57;;;5.35;;
60867;SDS011;46702;48.370;10.794;2022-10-16T03:42:42;4.07;;;2.97;;
60867;SDS011;46702;48.370;10.794;2022-10-16T03:45:09;4.28;;;2.58;;
60867;SDS011;46702;48.370;10.794;2022-10-16T03:47:36;6.68;;;4.85;;
60867;SDS011;46702;48.370;10.794;2022-10-16T03:50:02;7.78;;;3.25;;
60867;SDS011;46702;48.370;10.794;2022-10-16T03:52:29;3.63;;;2.90;;
60867;SDS011;46702;48.370;10.794;2022-10-16T03:54:55;4.28;;;2.97;;
60867;SDS011;46702;48.370;10.794;2022-10-16T03:57:22;6.53;;;3.13;;
60867;SDS011;46702;48.370;10.794;2022-10-16T03:59:48;2.38;;;1.85;;
60867;SDS011;46702;48.370;10.794;2022-10-16T04:02:14;4.10;;;1.63;;
60867;SDS011;46702;48.370;10.794;2022-10-16T04:04:41;2.95;;;1.58;;
60867;SDS011;46702;48.370;10.794;2022-10-16T04:07:07;2.45;;;1.40;;
60867;SDS011;46702;48.370;10.794;2022-10-16T04:09:33;1.38;;;1.27;;
60867;SDS011;46702;48.370;10.794;2022-10-16T04:11:59;4.78;;;1.58;;
60867;SDS011;46702;48.370;10.794;2022-10-16T04:14:25;2.22;;;1.40;;
60867;SDS011;46702;48.370;10.794;2022-10-16T04:16:51;2.03;;;1.50;;
60867;SDS011;46702;48.370;10.794;2022-10-16T04:19:17;3.85;;;1.40;;
60867;SDS011;46702;48.370;10.794;2022-10-16T04:21:43;3.42;;;1.48;;
60867;SDS011;46702;48.370;10.794;2022-10-16T04:24:10;3.58;;;1.92;;
60867;SDS011;46702;48.370;10.794;2022-10-16T04:26:36;2.65;;;1.95;;
60867;SDS011;46702;48.370;10.794;2022-10-16T04:29:03;2.28;;;1.70;;
60867;SDS011;46702;48.370;10.794;2022-10-16T04:31:29;1.52;;;1.42;;
60867;SDS011;46702;48.370;10.794;2022-10-16T04:33:55;4.05;;;1.75;;
60867;SDS011;46702;48.370;10.794;2022-10-16T04:36:21;3.10;;;1.80;;
60867;SDS011;46702;48.370;10.794;2022-10-16T04:38:47;1.65;;;1.55;;
60867;SDS011;46702;48.370;10.794;2022-10-16T04:41:13;2.85;;;1.55;;
60867;SDS011;46702;48.370;10.794;2022-10-16T04:43:39;3.33;;;1.75;;
60867;SDS011;46702;48.370;10.794;2022-10-16T04:46:05;2.38;;;1.48;;
60867;SDS011;46702;48.370;10.794;2022-10-16T04:48:30;2.90;;;1.42;;
60867;SDS011;46702;48.370;10.794;2022-10-16T04:50:57;7.70;;;1.75;;
60867;SDS011;46702;48.370;10.794;2022-10-16T04:53:23;1.50;;;1.40;;
60867;SDS011;46702;48.370;10.794;2022-10-16T04:55:49;3.72;;;1.40;;
60867;SDS011;46702;48.370;10.794;2022-10-16T04:58:15;6.15;;;1.83;;
60867;SDS011;46702;48.370;10.794;2022-10-16T05:00:41;2.55;;;1.63;;
60867;SDS011;46702;48.370;10.794;2022-10-16T05:03:07;1.80;;;1.60;;
60867;SDS011;46702;48.370;10.794;2022-10-16T05:05:34;4.65;;;1.80;;
60867;SDS011;46702;48.370;10.794;2022-10-16T05:08:01;2.83;;;1.55;;
60867;SDS011;46702;48.370;10.794;2022-10-16T05:10:27;3.20;;;1.80;;
60867;SDS011;46702;48.370;10.794;2022-10-16T05:12:53;4.68;;;1.50;;
60867;SDS011;46702;48.370;10.794;2022-10-16T05:15:19;1.60;;;1.50;;
60867;SDS011;46702;48.370;10.794;2022-10-16T05:17:44;2.58;;;1.75;;
60867;SDS011;46702;48.370;10.794;2022-10-16T05:20:10;1.60;;;1.50;;
60867;SDS011;46702;48.370;10.794;2022-10-16T05:22:37;1.70;;;1.60;;
60867;SDS011;46702;48.370;10.794;2022-10-16T05:25:03;3.00;;;1.80;;
60867;SDS011;46702;48.370;10.794;2022-10-16T05:27:29;5.40;;;2.00;;
60867;SDS011;46702;48.370;10.794;2022-10-16T05:29:55;2.92;;;1.50;;
60867;SDS011;46702;48.370;10.794;2022-10-16T05:32:21;2.65;;;1.48;;
60867;SDS011;46702;48.370;10.794;2022-10-16T05:34:46;1.60;;;1.50;;
60867;SDS011;46702;48.370;10.794;2022-10-16T05:37:13;1.30;;;1.30;;
60867;SDS011;46702;48.370;10.794;2022-10-16T05:39:38;1.83;;;1.50;;
60867;SDS011;46702;48.370;10.794;2022-10-16T05:42:05;2.10;;;1.48;;
60867;SDS011;46702;48.370;10.794;2022-10-16T05:44:31;1.50;;;1.40;;
60867;SDS011;46702;48.370;10.794;2022-10-16T05:46:57;3.05;;;1.20;;
60867;SDS011;46702;48.370;10.794;2022-10-16T05:49:23;3.00;;;1.40;;
60867;SDS011;46702;48.370;10.794;2022-10-16T05:51:49;1.30;;;1.20;;
60867;SDS011;46702;48.370;10.794;2022-10-16T05:54:15;1.90;;;1.70;;
60867;SDS011;46702;48.370;10.794;2022-10-16T05:56:42;2.08;;;1.40;;
60867;SDS011;46702;48.370;10.794;2022-10-16T05:59:09;1.80;;;1.70;;
60867;SDS011;46702;48.370;10.794;2022-10-16T06:01:35;1.85;;;1.50;;
60867;SDS011;46702;48.370;10.794;2022-10-16T06:04:02;1.65;;;1.55;;
60867;SDS011;46702;48.370;10.794;2022-10-16T06:06:28;4.35;;;1.52;;
60867;SDS011;46702;48.370;10.794;2022-10-16T06:08:56;1.53;;;1.43;;
60867;SDS011;46702;48.370;10.794;2022-10-16T06:11:24;1.58;;;1.48;;
60867;SDS011;46702;48.370;10.794;2022-10-16T06:13:53;1.63;;;1.52;;
60867;SDS011;46702;48.370;10.794;2022-10-16T06:16:22;2.03;;;1.42;;
60867;SDS011;46702;48.370;10.794;2022-10-16T06:18:50;1.58;;;1.48;;
60867;SDS011;46702;48.370;10.794;2022-10-16T06:21:18;3.00;;;1.60;;
60867;SDS011;46702;48.370;10.794;2022-10-16T06:26:13;2.88;;;1.48;;
60867;SDS011;46702;48.370;10.794;2022-10-16T06:28:45;1.02;;;1.02;;
60867;SDS011;46702;48.370;10.794;2022-10-16T06:31:12;2.75;;;1.20;;
60867;SDS011;46702;48.370;10.794;2022-10-16T06:33:42;1.20;;;1.20;;
60867;SDS011;46702;48.370;10.794;2022-10-16T06:36:10;2.13;;;1.70;;
60867;SDS011;46702;48.370;10.794;2022-10-16T06:38:38;4.30;;;1.17;;
60867;SDS011;46702;48.370;10.794;2022-10-16T06:41:06;1.98;;;1.48;;
60867;SDS011;46702;48.370;10.794;2022-10-16T06:43:33;1.70;;;1.60;;
60867;SDS011;46702;48.370;10.794;2022-10-16T06:46:04;1.60;;;1.50;;
60867;SDS011;46702;48.370;10.794;2022-10-16T06:48:33;3.10;;;1.80;;
60867;SDS011;46702;48.370;10.794;2022-10-16T06:51:01;2.42;;;1.92;;
60867;SDS011;46702;48.370;10.794;2022-10-16T06:53:30;5.03;;;2.20;;
60867;SDS011;46702;48.370;10.794;2022-10-16T06:56:11;5.28;;;2.10;;
60867;SDS011;46702;48.370;10.794;2022-10-16T06:58:40;3.95;;;1.80;;
60867;SDS011;46702;48.370;10.794;2022-10-16T07:01:16;2.10;;;1.90;;
60867;SDS011;46702;48.370;10.794;2022-10-16T07:03:44;2.50;;;2.03;;
60867;SDS011;46702;48.370;10.794;2022-10-16T07:06:13;3.53;;;1.98;;
60867;SDS011;46702;48.370;10.794;2022-10-16T07:08:45;2.47;;;2.03;;
60867;SDS011;46702;48.370;10.794;2022-10-16T07:11:13;3.13;;;1.90;;
60867;SDS011;46702;48.370;10.794;2022-10-16T07:13:42;4.57;;;2.50;;
60867;SDS011;46702;48.370;10.794;2022-10-16T07:16:11;3.47;;;1.80;;
60867;SDS011;46702;48.370;10.794;2022-10-16T07:18:45;2.83;;;2.08;;
60867;SDS011;46702;48.370;10.794;2022-10-16T07:21:15;3.75;;;1.80;;
60867;SDS011;46702;48.370;10.794;2022-10-16T07:23:42;2.03;;;1.50;;
60867;SDS011;46702;48.370;10.794;2022-10-16T07:26:09;3.53;;;2.30;;
60867;SDS011;46702;48.370;10.794;2022-10-16T07:28:37;3.80;;;2.15;;
60867;SDS011;46702;48.370;10.794;2022-10-16T07:31:05;2.72;;;2.20;;
60867;SDS011;46702;48.370;10.794;2022-10-16T07:33:36;3.28;;;2.10;;
60867;SDS011;46702;48.370;10.794;2022-10-16T07:36:05;2.97;;;2.00;;
60867;SDS011;46702;48.370;10.794;2022-10-16T07:38:32;3.90;;;2.13;;
60867;SDS011;46702;48.370;10.794;2022-10-16T07:43:25;5.07;;;1.80;;
60867;SDS011;46702;48.370;10.794;2022-10-16T07:45:53;4.55;;;1.98;;
60867;SDS011;46702;48.370;10.794;2022-10-16T07:48:20;3.47;;;1.90;;
60867;SDS011;46702;48.370;10.794;2022-10-16T07:50:47;2.73;;;1.90;;
60867;SDS011;46702;48.370;10.794;2022-10-16T07:53:14;3.33;;;1.98;;
60867;SDS011;46702;48.370;10.794;2022-10-16T07:55:40;2.35;;;1.60;;
60867;SDS011;46702;48.370;10.794;2022-10-16T07:58:06;2.80;;;1.38;;
60867;SDS011;46702;48.370;10.794;2022-10-16T08:00:32;2.08;;;1.88;;
60867;SDS011;46702;48.370;10.794;2022-10-16T08:02:58;2.95;;;1.80;;
60867;SDS011;46702;48.370;10.794;2022-10-16T08:05:25;2.22;;;1.60;;
60867;SDS011;46702;48.370;10.794;2022-10-16T08:07:52;2.83;;;1.70;;
60867;SDS011;46702;48.370;10.794;2022-10-16T08:10:19;1.48;;;1.30;;
60867;SDS011;46702;48.370;10.794;2022-10-16T08:12:46;5.03;;;1.70;;
60867;SDS011;46702;48.370;10.794;2022-10-16T08:15:12;5.25;;;1.55;;
60867;SDS011;46702;48.370;10.794;2022-10-16T08:17:37;1.92;;;1.50;;
60867;SDS011;46702;48.370;10.794;2022-10-16T08:20:03;1.33;;;1.23;;
60867;SDS011;46702;48.370;10.794;2022-10-16T08:22:29;1.40;;;1.10;;
60867;SDS011;46702;48.370;10.794;2022-10-16T08:24:55;2.17;;;1.60;;
60867;SDS011;46702;48.370;10.794;2022-10-16T08:27:21;1.50;;;1.40;;
60867;SDS011;46702;48.370;10.794;2022-10-16T08:29:48;1.60;;;1.45;;
60867;SDS011;46702;48.370;10.794;2022-10-16T08:32:14;1.85;;;1.20;;
60867;SDS011;46702;48.370;10.794;2022-10-16T08:34:41;2.13;;;1.20;;
60867;SDS011;46702;48.370;10.794;2022-10-16T08:37:07;1.85;;;1.33;;
60867;SDS011;46702;48.370;10.794;2022-10-16T08:39:36;2.90;;;1.63;;
60867;SDS011;46702;48.370;10.794;2022-10-16T08:47:26;2.45;;;1.17;;
60867;SDS011;46702;48.370;10.794;2022-10-16T08:50:16;1.50;;;1.40;;
60867;SDS011;46702;48.370;10.794;2022-10-16T08:52:54;2.88;;;0.70;;
60867;SDS011;46702;48.370;10.794;2022-10-16T08:55:37;1.15;;;1.10;;
60867;SDS011;46702;48.370;10.794;2022-10-16T08:58:12;5.57;;;1.65;;
60867;SDS011;46702;48.370;10.794;2022-10-16T09:00:39;1.77;;;1.10;;
60867;SDS011;46702;48.370;10.794;2022-10-16T09:14:25;0.90;;;0.90;;
60867;SDS011;46702;48.370;10.794;2022-10-16T09:17:03;1.00;;;0.73;;
60867;SDS011;46702;48.370;10.794;2022-10-16T09:19:39;0.70;;;0.70;;
60867;SDS011;46702;48.370;10.794;2022-10-16T09:22:12;2.08;;;0.90;;
60867;SDS011;46702;48.370;10.794;2022-10-16T09:24:40;1.45;;;0.82;;
60867;SDS011;46702;48.370;10.794;2022-10-16T09:27:12;0.82;;;0.80;;
60867;SDS011;46702;48.370;10.794;2022-10-16T09:29:39;0.80;;;0.70;;
60867;SDS011;46702;48.370;10.794;2022-10-16T09:32:18;0.70;;;0.70;;
60867;SDS011;46702;48.370;10.794;2022-10-16T09:34:47;3.25;;;1.00;;
60867;SDS011;46702;48.370;10.794;2022-10-16T09:37:19;0.90;;;0.90;;
60867;SDS011;46702;48.370;10.794;2022-10-16T09:39:48;0.73;;;0.73;;
60867;SDS011;46702;48.370;10.794;2022-10-16T09:42:25;1.67;;;0.80;;
60867;SDS011;46702;48.370;10.794;2022-10-16T09:44:56;1.08;;;0.98;;
60867;SDS011;46702;48.370;10.794;2022-10-16T09:47:23;2.47;;;0.90;;
60867;SDS011;46702;48.370;10.794;2022-10-16T09:49:54;1.15;;;0.90;;
60867;SDS011;46702;48.370;10.794;2022-10-16T09:52:31;1.17;;;1.00;;
60867;SDS011;46702;48.370;10.794;2022-10-16T09:55:02;1.05;;;1.00;;
60867;SDS011;46702;48.370;10.794;2022-10-16T09:57:51;2.22;;;0.85;;
60867;SDS011;46702;48.370;10.794;2022-10-16T10:00:19;1.20;;;1.10;;
60867;SDS011;46702;48.370;10.794;2022-10-16T10:02:45;3.08;;;1.08;;
60867;SDS011;46702;48.370;10.794;2022-10-16T10:05:33;4.05;;;1.17;;
60867;SDS011;46702;48.370;10.794;2022-10-16T10:08:01;2.55;;;0.95;;
60867;SDS011;46702;48.370;10.794;2022-10-16T10:10:31;2.15;;;1.00;;
60867;SDS011;46702;48.370;10.794;2022-10-16T10:12:59;1.13;;;0.90;;
60867;SDS011;46702;48.370;10.794;2022-10-16T10:15:25;3.70;;;1.38;;
60867;SDS011;46702;48.370;10.794;2022-10-16T10:17:55;1.23;;;1.00;;
60867;SDS011;46702;48.370;10.794;2022-10-16T10:20:24;1.42;;;0.80;;
60867;SDS011;46702;48.370;10.794;2022-10-16T10:22:50;1.73;;;0.90;;
60867;SDS011;46702;48.370;10.794;2022-10-16T10:25:22;2.83;;;0.88;;
60867;SDS011;46702;48.370;10.794;2022-10-16T10:31:03;1.65;;;1.30;;
60867;SDS011;46702;48.370;10.794;2022-10-16T10:33:50;1.25;;;1.15;;
60867;SDS011;46702;48.370;10.794;2022-10-16T10:38:58;1.00;;;1.00;;
60867;SDS011;46702;48.370;10.794;2022-10-16T10:41:38;1.17;;;1.05;;
60867;SDS011;46702;48.370;10.794;2022-10-16T10:50:49;1.25;;;0.90;;
60867;SDS011;46702;48.370;10.794;2022-10-16T11:01:12;1.63;;;1.33;;
60867;SDS011;46702;48.370;10.794;2022-10-16T11:03:46;1.48;;;1.00;;
60867;SDS011;46702;48.370;10.794;2022-10-16T11:06:22;1.10;;;1.00;;
60867;SDS011;46702;48.370;10.794;2022-10-16T11:11:23;2.35;;;0.90;;
60867;SDS011;46702;48.370;10.794;2022-10-16T11:16:54;2.30;;;0.95;;
60867;SDS011;46702;48.370;10.794;2022-10-16T11:21:55;1.73;;;0.70;;
60867;SDS011;46702;48.370;10.794;2022-10-16T11:27:28;1.33;;;0.90;;
60867;SDS011;46702;48.370;10.794;2022-10-16T11:30:02;2.10;;;1.13;;
60867;SDS011;46702;48.370;10.794;2022-10-16T11:32:32;1.63;;;1.00;;
60867;SDS011;46702;48.370;10.794;2022-10-16T11:35:11;3.70;;;0.80;;
60867;SDS011;46702;48.370;10.794;2022-10-16T11:37:44;1.67;;;1.00;;
60867;SDS011;46702;48.370;10.794;2022-10-16T11:40:21;0.85;;;0.80;;
60867;SDS011;46702;48.370;10.794;2022-10-16T11:42:57;0.90;;;0.88;;
60867;SDS011;46702;48.370;10.794;2022-10-16T11:45:41;2.70;;;0.90;;
60867;SDS011;46702;48.370;10.794;2022-10-16T11:48:24;3.38;;;1.08;;
60867;SDS011;46702;48.370;10.794;2022-10-16T11:51:02;1.33;;;1.10;;
60867;SDS011;46702;48.370;10.794;2022-10-16T11:56:31;0.90;;;0.90;;
60867;SDS011;46702;48.370;10.794;2022-10-16T11:59:25;0.90;;;0.90;;
60867;SDS011;46702;48.370;10.794;2022-10-16T12:02:16;1.40;;;1.15;;
60867;SDS011;46702;48.370;10.794;2022-10-16T12:04:55;1.30;;;0.93;;
60867;SDS011;46702;48.370;10.794;2022-10-16T12:07:35;1.83;;;1.20;;
60867;SDS011;46702;48.370;10.794;2022-10-16T12:10:38;1.67;;;1.10;;
60867;SDS011;46702;48.370;10.794;2022-10-16T12:13:03;0.98;;;0.95;;
60867;SDS011;46702;48.370;10.794;2022-10-16T12:15:31;3.05;;;1.23;;
60867;SDS011;46702;48.370;10.794;2022-10-16T12:17:58;0.85;;;0.80;;
60867;SDS011;46702;48.370;10.794;2022-10-16T12:20:29;1.42;;;1.10;;
60867;SDS011;46702;48.370;10.794;2022-10-16T12:23:06;4.43;;;1.10;;
60867;SDS011;46702;48.370;10.794;2022-10-16T12:25:42;3.50;;;1.30;;
60867;SDS011;46702;48.370;10.794;2022-10-16T12:30:40;1.08;;;0.90;;
60867;SDS011;46702;48.370;10.794;2022-10-16T12:33:42;4.22;;;1.20;;
60867;SDS011;46702;48.370;10.794;2022-10-16T12:36:03;1.23;;;1.10;;
60867;SDS011;46702;48.370;10.794;2022-10-16T12:38:37;1.55;;;1.00;;
60867;SDS011;46702;48.370;10.794;2022-10-16T12:41:10;0.80;;;0.80;;
60867;SDS011;46702;48.370;10.794;2022-10-16T12:43:41;2.77;;;1.57;;
60867;SDS011;46702;48.370;10.794;2022-10-16T12:48:34;1.05;;;0.88;;
60867;SDS011;46702;48.370;10.794;2022-10-16T12:53:37;0.80;;;0.80;;
60867;SDS011;46702;48.370;10.794;2022-10-16T12:56:18;1.73;;;0.90;;
60867;SDS011;46702;48.370;10.794;2022-10-16T12:59:00;0.90;;;0.88;;
60867;SDS011;46702;48.370;10.794;2022-10-16T13:01:37;4.65;;;0.93;;
60867;SDS011;46702;48.370;10.794;2022-10-16T13:09:55;1.58;;;0.80;;
60867;SDS011;46702;48.370;10.794;2022-10-16T13:28:12;0.85;;;0.85;;
60867;SDS011;46702;48.370;10.794;2022-10-16T13:30:40;2.08;;;1.00;;
60867;SDS011;46702;48.370;10.794;2022-10-16T13:35:52;1.13;;;0.88;;
60867;SDS011;46702;48.370;10.794;2022-10-16T13:38:21;0.90;;;0.90;;
60867;SDS011;46702;48.370;10.794;2022-10-16T13:40:48;1.00;;;0.90;;
60867;SDS011;46702;48.370;10.794;2022-10-16T13:43:28;1.08;;;0.63;;
60867;SDS011;46702;48.370;10.794;2022-10-16T13:46:03;1.33;;;0.80;;
60867;SDS011;46702;48.370;10.794;2022-10-16T13:48:31;3.08;;;1.05;;
60867;SDS011;46702;48.370;10.794;2022-10-16T13:51:02;10.40;;;1.35;;
60867;SDS011;46702;48.370;10.794;2022-10-16T13:53:29;2.05;;;1.23;;
60867;SDS011;46702;48.370;10.794;2022-10-16T13:55:57;4.38;;;0.80;;
60867;SDS011;46702;48.370;10.794;2022-10-16T13:58:25;0.60;;;0.60;;
60867;SDS011;46702;48.370;10.794;2022-10-16T14:00:55;1.52;;;1.15;;
60867;SDS011;46702;48.370;10.794;2022-10-16T14:03:22;0.98;;;0.90;;
60867;SDS011;46702;48.370;10.794;2022-10-16T14:05:49;1.42;;;0.70;;
60867;SDS011;46702;48.370;10.794;2022-10-16T14:08:22;2.05;;;0.88;;
60867;SDS011;46702;48.370;10.794;2022-10-16T14:13:24;1.50;;;0.70;;
60867;SDS011;46702;48.370;10.794;2022-10-16T14:15:59;1.33;;;0.80;;
60867;SDS011;46702;48.370;10.794;2022-10-16T14:18:30;0.73;;;0.73;;
60867;SDS011;46702;48.370;10.794;2022-10-16T14:21:02;1.88;;;0.88;;
60867;SDS011;46702;48.370;10.794;2022-10-16T14:23:30;0.82;;;0.82;;
60867;SDS011;46702;48.370;10.794;2022-10-16T14:28:36;1.33;;;1.00;;
60867;SDS011;46702;48.370;10.794;2022-10-16T14:31:13;0.98;;;0.98;;
60867;SDS011;46702;48.370;10.794;2022-10-16T14:33:42;0.95;;;0.90;;
60867;SDS011;46702;48.370;10.794;2022-10-16T14:36:11;1.50;;;0.80;;
60867;SDS011;46702;48.370;10.794;2022-10-16T14:38:40;1.08;;;0.98;;
60867;SDS011;46702;48.370;10.794;2022-10-16T14:41:08;0.80;;;0.80;;
60867;SDS011;46702;48.370;10.794;2022-10-16T14:43:35;2.60;;;1.10;;
60867;SDS011;46702;48.370;10.794;2022-10-16T14:46:03;1.75;;;0.90;;
60867;SDS011;46702;48.370;10.794;2022-10-16T14:48:39;0.77;;;0.70;;
60867;SDS011;46702;48.370;10.794;2022-10-16T14:51:08;1.92;;;0.93;;
60867;SDS011;46702;48.370;10.794;2022-10-16T14:53:39;1.38;;;1.10;;
60867;SDS011;46702;48.370;10.794;2022-10-16T14:56:06;0.90;;;0.90;;
60867;SDS011;46702;48.370;10.794;2022-10-16T14:58:39;2.25;;;1.10;;
60867;SDS011;46702;48.370;10.794;2022-10-16T15:01:04;1.88;;;1.00;;
60867;SDS011;46702;48.370;10.794;2022-10-16T15:03:33;1.40;;;1.08;;
60867;SDS011;46702;48.370;10.794;2022-10-16T15:05:59;2.08;;;1.00;;
60867;SDS011;46702;48.370;10.794;2022-10-16T15:08:24;0.85;;;0.70;;
60867;SDS011;46702;48.370;10.794;2022-10-16T15:10:50;1.98;;;1.10;;
60867;SDS011;46702;48.370;10.794;2022-10-16T15:13:16;1.25;;;1.00;;
60867;SDS011;46702;48.370;10.794;2022-10-16T15:15:45;0.85;;;0.85;;
60867;SDS011;46702;48.370;10.794;2022-10-16T15:18:12;0.95;;;0.95;;
60867;SDS011;46702;48.370;10.794;2022-10-16T15:20:40;1.10;;;1.08;;
60867;SDS011;46702;48.370;10.794;2022-10-16T15:23:16;1.20;;;1.10;;
60867;SDS011;46702;48.370;10.794;2022-10-16T15:25:44;1.13;;;1.02;;
60867;SDS011;46702;48.370;10.794;2022-10-16T15:28:10;1.27;;;1.02;;
60867;SDS011;46702;48.370;10.794;2022-10-16T15:30:37;1.67;;;1.20;;
60867;SDS011;46702;48.370;10.794;2022-10-16T15:33:04;2.72;;;1.38;;
60867;SDS011;46702;48.370;10.794;2022-10-16T15:35:34;3.83;;;1.17;;
60867;SDS011;46702;48.370;10.794;2022-10-16T15:38:00;2.80;;;1.27;;
60867;SDS011;46702;48.370;10.794;2022-10-16T15:40:25;2.22;;;1.25;;
60867;SDS011;46702;48.370;10.794;2022-10-16T15:42:51;1.25;;;1.10;;
60867;SDS011;46702;48.370;10.794;2022-10-16T15:45:17;1.20;;;1.10;;
60867;SDS011;46702;48.370;10.794;2022-10-16T15:47:44;3.85;;;1.30;;
60867;SDS011;46702;48.370;10.794;2022-10-16T15:50:11;1.48;;;1.23;;
60867;SDS011;46702;48.370;10.794;2022-10-16T15:52:38;4.50;;;1.67;;
60867;SDS011;46702;48.370;10.794;2022-10-16T15:55:05;4.50;;;2.05;;
60867;SDS011;46702;48.370;10.794;2022-10-16T15:57:32;2.60;;;1.60;;
60867;SDS011;46702;48.370;10.794;2022-10-16T15:59:58;2.88;;;1.73;;
60867;SDS011;46702;48.370;10.794;2022-10-16T16:02:23;2.33;;;1.40;;
60867;SDS011;46702;48.370;10.794;2022-10-16T16:04:49;4.80;;;1.40;;
60867;SDS011;46702;48.370;10.794;2022-10-16T16:07:15;3.97;;;1.52;;
60867;SDS011;46702;48.370;10.794;2022-10-16T16:09:40;4.65;;;1.45;;
60867;SDS011;46702;48.370;10.794;2022-10-16T16:12:06;4.93;;;1.88;;
60867;SDS011;46702;48.370;10.794;2022-10-16T16:14:32;3.70;;;1.70;;
60867;SDS011;46702;48.370;10.794;2022-10-16T16:16:58;5.53;;;1.60;;
60867;SDS011;46702;48.370;10.794;2022-10-16T16:19:24;3.03;;;1.30;;
60867;SDS011;46702;48.370;10.794;2022-10-16T16:21:50;2.55;;;1.60;;
60867;SDS011;46702;48.370;10.794;2022-10-16T16:24:16;4.47;;;1.77;;
60867;SDS011;46702;48.370;10.794;2022-10-16T16:26:42;3.75;;;1.40;;
60867;SDS011;46702;48.370;10.794;2022-10-16T16:29:12;5.72;;;1.45;;
60867;SDS011;46702;48.370;10.794;2022-10-16T16:31:40;4.82;;;1.48;;
60867;SDS011;46702;48.370;10.794;2022-10-16T16:34:06;3.20;;;1.63;;
60867;SDS011;46702;48.370;10.794;2022-10-16T16:36:32;2.55;;;1.50;;
60867;SDS011;46702;48.370;10.794;2022-10-16T16:38:58;3.72;;;2.10;;
60867;SDS011;46702;48.370;10.794;2022-10-16T16:41:25;6.55;;;3.00;;